sensor_id;sensor_type;location;lat;lon;timestamp;P1;durP1;ratioP1;P2;durP2;ratioP2
51764;SDS011;37835;53.256;6.456;2023-07-13T00:02:14;11.40;;;2.85;;
51764;SDS011;37835;53.256;6.456;2023-07-13T00:04:40;15.38;;;3.75;;
51764;SDS011;37835;53.256;6.456;2023-07-13T00:07:07;11.85;;;3.25;;
51764;SDS011;37835;53.256;6.456;2023-07-13T00:09:33;13.13;;;3.08;;
51764;SDS011;37835;53.256;6.456;2023-07-13T00:11:59;14.30;;;3.28;;
51764;SDS011;37835;53.256;6.456;2023-07-13T00:14:26;13.57;;;2.72;;
51764;SDS011;37835;53.256;6.456;2023-07-13T00:16:53;13.27;;;3.15;;
51764;SDS011;37835;53.256;6.456;2023-07-13T00:19:20;11.90;;;2.95;;
51764;SDS011;37835;53.256;6.456;2023-07-13T00:21:46;12.57;;;3.38;;
51764;SDS011;37835;53.256;6.456;2023-07-13T00:24:13;13.55;;;3.28;;
51764;SDS011;37835;53.256;6.456;2023-07-13T00:26:41;15.68;;;3.45;;
51764;SDS011;37835;53.256;6.456;2023-07-13T00:29:11;12.10;;;2.92;;
51764;SDS011;37835;53.256;6.456;2023-07-13T00:31:37;9.10;;;2.78;;
51764;SDS011;37835;53.256;6.456;2023-07-13T00:34:03;14.85;;;3.63;;
51764;SDS011;37835;53.256;6.456;2023-07-13T00:36:29;16.55;;;3.40;;
51764;SDS011;37835;53.256;6.456;2023-07-13T00:38:56;12.98;;;3.55;;
51764;SDS011;37835;53.256;6.456;2023-07-13T00:41:21;13.80;;;3.22;;
51764;SDS011;37835;53.256;6.456;2023-07-13T00:43:47;17.13;;;3.20;;
51764;SDS011;37835;53.256;6.456;2023-07-13T00:46:18;9.27;;;2.90;;
51764;SDS011;37835;53.256;6.456;2023-07-13T00:48:52;10.07;;;2.65;;
51764;SDS011;37835;53.256;6.456;2023-07-13T00:51:22;10.93;;;3.15;;
51764;SDS011;37835;53.256;6.456;2023-07-13T00:53:52;16.40;;;3.70;;
51764;SDS011;37835;53.256;6.456;2023-07-13T00:56:19;14.55;;;3.03;;
51764;SDS011;37835;53.256;6.456;2023-07-13T00:58:45;17.05;;;3.78;;
51764;SDS011;37835;53.256;6.456;2023-07-13T01:01:11;11.45;;;2.83;;
51764;SDS011;37835;53.256;6.456;2023-07-13T01:03:38;17.40;;;3.05;;
51764;SDS011;37835;53.256;6.456;2023-07-13T01:06:05;11.38;;;3.17;;
51764;SDS011;37835;53.256;6.456;2023-07-13T01:08:31;12.98;;;3.47;;
51764;SDS011;37835;53.256;6.456;2023-07-13T01:10:58;15.88;;;3.08;;
51764;SDS011;37835;53.256;6.456;2023-07-13T01:13:24;14.38;;;3.33;;
51764;SDS011;37835;53.256;6.456;2023-07-13T01:15:51;10.75;;;2.83;;
51764;SDS011;37835;53.256;6.456;2023-07-13T01:18:18;12.05;;;2.83;;
51764;SDS011;37835;53.256;6.456;2023-07-13T01:20:59;13.93;;;3.50;;
51764;SDS011;37835;53.256;6.456;2023-07-13T01:23:28;10.50;;;3.63;;
51764;SDS011;37835;53.256;6.456;2023-07-13T01:25:55;11.55;;;2.95;;
51764;SDS011;37835;53.256;6.456;2023-07-13T01:28:21;10.27;;;3.05;;
51764;SDS011;37835;53.256;6.456;2023-07-13T01:30:48;11.55;;;3.00;;
51764;SDS011;37835;53.256;6.456;2023-07-13T01:33:15;12.07;;;3.08;;
51764;SDS011;37835;53.256;6.456;2023-07-13T01:35:43;9.57;;;2.60;;
51764;SDS011;37835;53.256;6.456;2023-07-13T01:38:11;9.73;;;3.30;;
51764;SDS011;37835;53.256;6.456;2023-07-13T01:40:39;12.77;;;3.83;;
51764;SDS011;37835;53.256;6.456;2023-07-13T01:43:05;15.90;;;3.25;;
51764;SDS011;37835;53.256;6.456;2023-07-13T01:45:31;19.25;;;4.07;;
51764;SDS011;37835;53.256;6.456;2023-07-13T01:47:57;15.70;;;3.38;;
51764;SDS011;37835;53.256;6.456;2023-07-13T01:50:23;12.60;;;3.78;;
51764;SDS011;37835;53.256;6.456;2023-07-13T01:52:49;13.00;;;3.47;;
51764;SDS011;37835;53.256;6.456;2023-07-13T01:55:15;12.52;;;3.00;;
51764;SDS011;37835;53.256;6.456;2023-07-13T01:57:41;11.55;;;2.92;;
51764;SDS011;37835;53.256;6.456;2023-07-13T02:00:08;8.07;;;2.40;;
51764;SDS011;37835;53.256;6.456;2023-07-13T02:02:35;9.35;;;2.10;;
51764;SDS011;37835;53.256;6.456;2023-07-13T02:05:01;8.98;;;1.73;;
51764;SDS011;37835;53.256;6.456;2023-07-13T02:07:26;9.60;;;1.67;;
51764;SDS011;37835;53.256;6.456;2023-07-13T02:09:52;4.63;;;1.27;;
51764;SDS011;37835;53.256;6.456;2023-07-13T02:12:18;5.13;;;1.20;;
51764;SDS011;37835;53.256;6.456;2023-07-13T02:14:44;6.72;;;1.35;;
51764;SDS011;37835;53.256;6.456;2023-07-13T02:17:10;5.03;;;1.27;;
51764;SDS011;37835;53.256;6.456;2023-07-13T02:19:36;5.93;;;1.20;;
51764;SDS011;37835;53.256;6.456;2023-07-13T02:22:02;3.33;;;0.85;;
51764;SDS011;37835;53.256;6.456;2023-07-13T02:24:28;3.20;;;0.88;;
51764;SDS011;37835;53.256;6.456;2023-07-13T02:26:54;4.03;;;0.98;;
51764;SDS011;37835;53.256;6.456;2023-07-13T02:29:19;5.40;;;1.50;;
51764;SDS011;37835;53.256;6.456;2023-07-13T02:31:45;3.83;;;1.58;;
51764;SDS011;37835;53.256;6.456;2023-07-13T02:34:11;2.47;;;0.70;;
51764;SDS011;37835;53.256;6.456;2023-07-13T02:36:36;2.13;;;0.93;;
51764;SDS011;37835;53.256;6.456;2023-07-13T02:39:04;1.75;;;0.90;;
51764;SDS011;37835;53.256;6.456;2023-07-13T02:41:30;2.65;;;0.70;;
51764;SDS011;37835;53.256;6.456;2023-07-13T02:43:57;3.92;;;0.75;;
51764;SDS011;37835;53.256;6.456;2023-07-13T02:46:32;5.60;;;0.98;;
51764;SDS011;37835;53.256;6.456;2023-07-13T02:48:59;3.42;;;0.80;;
51764;SDS011;37835;53.256;6.456;2023-07-13T02:51:25;3.40;;;0.80;;
51764;SDS011;37835;53.256;6.456;2023-07-13T02:53:51;3.20;;;0.88;;
51764;SDS011;37835;53.256;6.456;2023-07-13T02:56:17;6.32;;;1.00;;
51764;SDS011;37835;53.256;6.456;2023-07-13T02:58:48;5.27;;;1.83;;
51764;SDS011;37835;53.256;6.456;2023-07-13T03:01:13;2.90;;;0.70;;
51764;SDS011;37835;53.256;6.456;2023-07-13T03:03:43;3.80;;;1.02;;
51764;SDS011;37835;53.256;6.456;2023-07-13T03:06:10;4.40;;;1.02;;
51764;SDS011;37835;53.256;6.456;2023-07-13T03:08:36;5.47;;;1.33;;
51764;SDS011;37835;53.256;6.456;2023-07-13T03:11:06;4.57;;;1.55;;
51764;SDS011;37835;53.256;6.456;2023-07-13T03:13:36;4.38;;;1.17;;
51764;SDS011;37835;53.256;6.456;2023-07-13T03:16:03;3.40;;;1.20;;
51764;SDS011;37835;53.256;6.456;2023-07-13T03:18:29;3.45;;;1.00;;
51764;SDS011;37835;53.256;6.456;2023-07-13T03:20:55;4.00;;;1.30;;
51764;SDS011;37835;53.256;6.456;2023-07-13T03:23:21;5.28;;;1.40;;
51764;SDS011;37835;53.256;6.456;2023-07-13T03:25:47;4.57;;;1.50;;
51764;SDS011;37835;53.256;6.456;2023-07-13T03:28:14;4.75;;;2.13;;
51764;SDS011;37835;53.256;6.456;2023-07-13T03:30:40;4.65;;;1.60;;
51764;SDS011;37835;53.256;6.456;2023-07-13T03:33:07;11.98;;;2.33;;
51764;SDS011;37835;53.256;6.456;2023-07-13T03:35:33;8.02;;;2.60;;
51764;SDS011;37835;53.256;6.456;2023-07-13T03:38:00;7.05;;;3.25;;
51764;SDS011;37835;53.256;6.456;2023-07-13T03:40:27;11.85;;;3.38;;
51764;SDS011;37835;53.256;6.456;2023-07-13T03:42:53;9.25;;;3.20;;
51764;SDS011;37835;53.256;6.456;2023-07-13T03:45:19;12.43;;;3.50;;
51764;SDS011;37835;53.256;6.456;2023-07-13T03:47:45;10.27;;;3.15;;
51764;SDS011;37835;53.256;6.456;2023-07-13T03:50:10;15.80;;;3.50;;
51764;SDS011;37835;53.256;6.456;2023-07-13T03:52:36;17.42;;;3.90;;
51764;SDS011;37835;53.256;6.456;2023-07-13T03:55:02;11.65;;;3.80;;
51764;SDS011;37835;53.256;6.456;2023-07-13T03:57:28;13.35;;;3.72;;
51764;SDS011;37835;53.256;6.456;2023-07-13T03:59:53;15.50;;;3.95;;
51764;SDS011;37835;53.256;6.456;2023-07-13T04:02:19;15.20;;;3.95;;
51764;SDS011;37835;53.256;6.456;2023-07-13T04:04:46;15.10;;;3.88;;
51764;SDS011;37835;53.256;6.456;2023-07-13T04:07:11;14.82;;;4.32;;
51764;SDS011;37835;53.256;6.456;2023-07-13T04:09:37;16.63;;;4.35;;
51764;SDS011;37835;53.256;6.456;2023-07-13T04:12:03;9.68;;;3.35;;
51764;SDS011;37835;53.256;6.456;2023-07-13T04:14:30;13.13;;;3.38;;
51764;SDS011;37835;53.256;6.456;2023-07-13T04:16:55;10.05;;;3.50;;
51764;SDS011;37835;53.256;6.456;2023-07-13T04:19:21;16.88;;;4.55;;
51764;SDS011;37835;53.256;6.456;2023-07-13T04:21:47;14.63;;;4.00;;
51764;SDS011;37835;53.256;6.456;2023-07-13T04:24:13;9.75;;;3.55;;
51764;SDS011;37835;53.256;6.456;2023-07-13T04:26:39;11.07;;;4.18;;
51764;SDS011;37835;53.256;6.456;2023-07-13T04:29:05;14.35;;;3.83;;
51764;SDS011;37835;53.256;6.456;2023-07-13T04:31:31;12.50;;;3.60;;
51764;SDS011;37835;53.256;6.456;2023-07-13T04:33:57;13.63;;;4.00;;
51764;SDS011;37835;53.256;6.456;2023-07-13T04:36:23;14.57;;;4.38;;
51764;SDS011;37835;53.256;6.456;2023-07-13T04:38:52;13.48;;;4.05;;
51764;SDS011;37835;53.256;6.456;2023-07-13T04:41:19;10.52;;;3.55;;
51764;SDS011;37835;53.256;6.456;2023-07-13T04:43:45;15.77;;;3.78;;
51764;SDS011;37835;53.256;6.456;2023-07-13T04:46:12;17.85;;;3.78;;
51764;SDS011;37835;53.256;6.456;2023-07-13T04:48:43;14.32;;;4.10;;
51764;SDS011;37835;53.256;6.456;2023-07-13T04:51:09;15.80;;;3.78;;
51764;SDS011;37835;53.256;6.456;2023-07-13T04:53:35;16.98;;;4.30;;
51764;SDS011;37835;53.256;6.456;2023-07-13T04:56:01;20.08;;;4.40;;
51764;SDS011;37835;53.256;6.456;2023-07-13T04:58:28;18.50;;;4.40;;
51764;SDS011;37835;53.256;6.456;2023-07-13T05:00:59;12.18;;;4.00;;
51764;SDS011;37835;53.256;6.456;2023-07-13T05:03:26;15.30;;;3.78;;
51764;SDS011;37835;53.256;6.456;2023-07-13T05:05:59;11.93;;;3.60;;
51764;SDS011;37835;53.256;6.456;2023-07-13T05:08:26;11.63;;;3.25;;
51764;SDS011;37835;53.256;6.456;2023-07-13T05:10:52;13.45;;;3.63;;
51764;SDS011;37835;53.256;6.456;2023-07-13T05:13:18;15.68;;;3.40;;
51764;SDS011;37835;53.256;6.456;2023-07-13T05:15:45;14.68;;;4.00;;
51764;SDS011;37835;53.256;6.456;2023-07-13T05:18:10;16.10;;;3.67;;
51764;SDS011;37835;53.256;6.456;2023-07-13T05:20:36;14.52;;;3.20;;
51764;SDS011;37835;53.256;6.456;2023-07-13T05:23:02;14.98;;;3.65;;
51764;SDS011;37835;53.256;6.456;2023-07-13T05:25:28;15.75;;;3.40;;
51764;SDS011;37835;53.256;6.456;2023-07-13T05:27:53;18.20;;;4.13;;
51764;SDS011;37835;53.256;6.456;2023-07-13T05:30:19;15.55;;;3.83;;
51764;SDS011;37835;53.256;6.456;2023-07-13T05:32:45;12.50;;;3.10;;
51764;SDS011;37835;53.256;6.456;2023-07-13T05:35:11;10.60;;;3.00;;
51764;SDS011;37835;53.256;6.456;2023-07-13T05:37:37;13.23;;;3.55;;
51764;SDS011;37835;53.256;6.456;2023-07-13T05:40:03;12.95;;;2.80;;
51764;SDS011;37835;53.256;6.456;2023-07-13T05:42:29;12.63;;;2.90;;
51764;SDS011;37835;53.256;6.456;2023-07-13T05:44:56;14.90;;;2.95;;
51764;SDS011;37835;53.256;6.456;2023-07-13T05:47:22;13.13;;;3.70;;
51764;SDS011;37835;53.256;6.456;2023-07-13T05:49:48;11.20;;;3.10;;
51764;SDS011;37835;53.256;6.456;2023-07-13T05:52:13;10.52;;;3.10;;
51764;SDS011;37835;53.256;6.456;2023-07-13T05:54:39;9.95;;;3.00;;
51764;SDS011;37835;53.256;6.456;2023-07-13T05:57:05;12.05;;;3.25;;
51764;SDS011;37835;53.256;6.456;2023-07-13T05:59:31;10.55;;;2.97;;
51764;SDS011;37835;53.256;6.456;2023-07-13T06:01:56;7.78;;;3.10;;
51764;SDS011;37835;53.256;6.456;2023-07-13T06:04:22;15.48;;;3.72;;
51764;SDS011;37835;53.256;6.456;2023-07-13T06:06:48;7.38;;;2.90;;
51764;SDS011;37835;53.256;6.456;2023-07-13T06:09:13;12.43;;;3.03;;
51764;SDS011;37835;53.256;6.456;2023-07-13T06:11:39;11.50;;;2.92;;
51764;SDS011;37835;53.256;6.456;2023-07-13T06:14:05;11.45;;;2.67;;
51764;SDS011;37835;53.256;6.456;2023-07-13T06:16:30;12.90;;;2.90;;
51764;SDS011;37835;53.256;6.456;2023-07-13T06:18:56;13.00;;;2.72;;
51764;SDS011;37835;53.256;6.456;2023-07-13T06:21:22;7.00;;;2.22;;
51764;SDS011;37835;53.256;6.456;2023-07-13T06:23:49;6.50;;;2.33;;
51764;SDS011;37835;53.256;6.456;2023-07-13T06:26:16;6.15;;;2.45;;
51764;SDS011;37835;53.256;6.456;2023-07-13T06:28:43;8.98;;;2.50;;
51764;SDS011;37835;53.256;6.456;2023-07-13T06:31:09;10.75;;;2.22;;
51764;SDS011;37835;53.256;6.456;2023-07-13T06:33:37;16.33;;;2.60;;
51764;SDS011;37835;53.256;6.456;2023-07-13T06:36:04;8.88;;;2.38;;
51764;SDS011;37835;53.256;6.456;2023-07-13T06:38:31;13.27;;;2.38;;
51764;SDS011;37835;53.256;6.456;2023-07-13T06:40:57;9.38;;;2.10;;
51764;SDS011;37835;53.256;6.456;2023-07-13T06:43:23;7.45;;;1.73;;
51764;SDS011;37835;53.256;6.456;2023-07-13T06:45:50;8.57;;;1.95;;
51764;SDS011;37835;53.256;6.456;2023-07-13T06:48:16;7.53;;;2.00;;
51764;SDS011;37835;53.256;6.456;2023-07-13T06:50:43;9.40;;;2.15;;
51764;SDS011;37835;53.256;6.456;2023-07-13T06:53:09;5.47;;;1.90;;
51764;SDS011;37835;53.256;6.456;2023-07-13T06:55:36;7.70;;;1.73;;
51764;SDS011;37835;53.256;6.456;2023-07-13T06:58:02;7.15;;;1.92;;
51764;SDS011;37835;53.256;6.456;2023-07-13T07:00:28;8.57;;;1.90;;
51764;SDS011;37835;53.256;6.456;2023-07-13T07:02:54;6.30;;;1.90;;
51764;SDS011;37835;53.256;6.456;2023-07-13T07:05:19;8.98;;;1.85;;
51764;SDS011;37835;53.256;6.456;2023-07-13T07:07:50;8.70;;;1.75;;
51764;SDS011;37835;53.256;6.456;2023-07-13T07:10:18;12.52;;;2.25;;
51764;SDS011;37835;53.256;6.456;2023-07-13T07:12:44;8.20;;;2.22;;
51764;SDS011;37835;53.256;6.456;2023-07-13T07:15:10;4.75;;;1.38;;
51764;SDS011;37835;53.256;6.456;2023-07-13T07:17:36;4.60;;;1.73;;
51764;SDS011;37835;53.256;6.456;2023-07-13T07:20:02;7.30;;;1.75;;
51764;SDS011;37835;53.256;6.456;2023-07-13T07:22:28;7.38;;;1.55;;
51764;SDS011;37835;53.256;6.456;2023-07-13T07:24:55;4.97;;;1.55;;
51764;SDS011;37835;53.256;6.456;2023-07-13T07:27:24;5.93;;;1.50;;
51764;SDS011;37835;53.256;6.456;2023-07-13T07:29:50;6.05;;;1.30;;
51764;SDS011;37835;53.256;6.456;2023-07-13T07:32:15;3.47;;;1.30;;
51764;SDS011;37835;53.256;6.456;2023-07-13T07:34:41;2.95;;;1.02;;
51764;SDS011;37835;53.256;6.456;2023-07-13T07:37:09;5.22;;;1.50;;
51764;SDS011;37835;53.256;6.456;2023-07-13T07:39:38;9.55;;;1.58;;
51764;SDS011;37835;53.256;6.456;2023-07-13T07:42:04;4.05;;;1.50;;
51764;SDS011;37835;53.256;6.456;2023-07-13T07:44:33;8.82;;;1.70;;
51764;SDS011;37835;53.256;6.456;2023-07-13T07:46:59;5.05;;;1.52;;
51764;SDS011;37835;53.256;6.456;2023-07-13T07:49:25;10.23;;;2.53;;
51764;SDS011;37835;53.256;6.456;2023-07-13T07:51:50;7.32;;;1.83;;
51764;SDS011;37835;53.256;6.456;2023-07-13T07:54:16;9.95;;;1.70;;
51764;SDS011;37835;53.256;6.456;2023-07-13T07:56:42;3.75;;;1.33;;
51764;SDS011;37835;53.256;6.456;2023-07-13T07:59:08;5.80;;;1.70;;
51764;SDS011;37835;53.256;6.456;2023-07-13T08:01:34;4.47;;;1.70;;
51764;SDS011;37835;53.256;6.456;2023-07-13T08:04:00;3.72;;;1.10;;
51764;SDS011;37835;53.256;6.456;2023-07-13T08:06:26;2.92;;;1.15;;
51764;SDS011;37835;53.256;6.456;2023-07-13T08:08:51;3.83;;;1.65;;
51764;SDS011;37835;53.256;6.456;2023-07-13T08:11:17;4.10;;;1.23;;
51764;SDS011;37835;53.256;6.456;2023-07-13T08:13:43;3.28;;;1.58;;
51764;SDS011;37835;53.256;6.456;2023-07-13T08:16:09;2.22;;;1.15;;
51764;SDS011;37835;53.256;6.456;2023-07-13T08:18:35;3.58;;;1.10;;
51764;SDS011;37835;53.256;6.456;2023-07-13T08:21:04;4.13;;;1.35;;
51764;SDS011;37835;53.256;6.456;2023-07-13T08:23:31;4.35;;;1.10;;
51764;SDS011;37835;53.256;6.456;2023-07-13T08:25:57;5.38;;;1.60;;
51764;SDS011;37835;53.256;6.456;2023-07-13T08:28:23;6.13;;;1.30;;
51764;SDS011;37835;53.256;6.456;2023-07-13T08:30:49;9.00;;;1.52;;
51764;SDS011;37835;53.256;6.456;2023-07-13T08:33:19;5.00;;;1.20;;
51764;SDS011;37835;53.256;6.456;2023-07-13T08:35:49;7.03;;;1.50;;
51764;SDS011;37835;53.256;6.456;2023-07-13T08:38:16;5.40;;;1.40;;
51764;SDS011;37835;53.256;6.456;2023-07-13T08:40:42;6.32;;;1.58;;
51764;SDS011;37835;53.256;6.456;2023-07-13T08:43:12;3.70;;;1.25;;
51764;SDS011;37835;53.256;6.456;2023-07-13T08:45:48;4.70;;;1.63;;
51764;SDS011;37835;53.256;6.456;2023-07-13T08:48:30;1.83;;;1.50;;
51764;SDS011;37835;53.256;6.456;2023-07-13T08:54:00;5.85;;;1.42;;
51764;SDS011;37835;53.256;6.456;2023-07-13T08:56:30;8.60;;;1.83;;
51764;SDS011;37835;53.256;6.456;2023-07-13T08:59:03;5.50;;;1.52;;
51764;SDS011;37835;53.256;6.456;2023-07-13T09:04:18;5.03;;;1.80;;
51764;SDS011;37835;53.256;6.456;2023-07-13T09:09:19;7.85;;;2.00;;
51764;SDS011;37835;53.256;6.456;2023-07-13T09:14:40;6.22;;;1.92;;
51764;SDS011;37835;53.256;6.456;2023-07-13T09:20:03;6.10;;;2.03;;
51764;SDS011;37835;53.256;6.456;2023-07-13T09:22:40;5.63;;;1.95;;
51764;SDS011;37835;53.256;6.456;2023-07-13T09:25:21;6.47;;;1.75;;
51764;SDS011;37835;53.256;6.456;2023-07-13T09:27:56;4.60;;;1.83;;
51764;SDS011;37835;53.256;6.456;2023-07-13T09:30:37;6.45;;;1.55;;
51764;SDS011;37835;53.256;6.456;2023-07-13T09:33:04;9.48;;;2.70;;
51764;SDS011;37835;53.256;6.456;2023-07-13T09:35:30;7.82;;;1.75;;
51764;SDS011;37835;53.256;6.456;2023-07-13T09:37:57;9.10;;;1.95;;
51764;SDS011;37835;53.256;6.456;2023-07-13T09:40:27;5.20;;;1.60;;
51764;SDS011;37835;53.256;6.456;2023-07-13T09:43:20;5.88;;;1.25;;
51764;SDS011;37835;53.256;6.456;2023-07-13T09:45:46;2.33;;;1.20;;
51764;SDS011;37835;53.256;6.456;2023-07-13T09:48:14;4.45;;;1.45;;
51764;SDS011;37835;53.256;6.456;2023-07-13T09:50:41;8.00;;;1.33;;
51764;SDS011;37835;53.256;6.456;2023-07-13T09:53:15;3.83;;;1.00;;
51764;SDS011;37835;53.256;6.456;2023-07-13T09:55:47;2.25;;;1.00;;
51764;SDS011;37835;53.256;6.456;2023-07-13T10:00:54;1.60;;;0.88;;
51764;SDS011;37835;53.256;6.456;2023-07-13T10:03:31;1.85;;;0.77;;
51764;SDS011;37835;53.256;6.456;2023-07-13T10:06:12;4.50;;;1.30;;
51764;SDS011;37835;53.256;6.456;2023-07-13T10:08:46;2.00;;;0.73;;
51764;SDS011;37835;53.256;6.456;2023-07-13T10:11:20;2.53;;;1.02;;
51764;SDS011;37835;53.256;6.456;2023-07-13T10:13:51;3.80;;;0.70;;
51764;SDS011;37835;53.256;6.456;2023-07-13T10:16:33;2.00;;;0.75;;
51764;SDS011;37835;53.256;6.456;2023-07-13T10:19:02;3.25;;;0.80;;
51764;SDS011;37835;53.256;6.456;2023-07-13T10:21:38;1.50;;;0.60;;
51764;SDS011;37835;53.256;6.456;2023-07-13T10:24:24;3.40;;;0.77;;
51764;SDS011;37835;53.256;6.456;2023-07-13T10:27:00;3.13;;;0.80;;
51764;SDS011;37835;53.256;6.456;2023-07-13T10:29:32;4.43;;;1.00;;
51764;SDS011;37835;53.256;6.456;2023-07-13T10:32:02;1.73;;;0.85;;
51764;SDS011;37835;53.256;6.456;2023-07-13T10:34:34;5.70;;;1.15;;
51764;SDS011;37835;53.256;6.456;2023-07-13T10:37:00;3.08;;;0.75;;
51764;SDS011;37835;53.256;6.456;2023-07-13T10:39:27;1.67;;;0.57;;
51764;SDS011;37835;53.256;6.456;2023-07-13T10:41:55;2.55;;;0.70;;
51764;SDS011;37835;53.256;6.456;2023-07-13T10:44:29;3.17;;;0.65;;
51764;SDS011;37835;53.256;6.456;2023-07-13T10:47:04;3.55;;;0.45;;
51764;SDS011;37835;53.256;6.456;2023-07-13T10:49:33;1.63;;;0.40;;
51764;SDS011;37835;53.256;6.456;2023-07-13T10:52:01;2.00;;;0.50;;
51764;SDS011;37835;53.256;6.456;2023-07-13T10:54:31;4.25;;;0.73;;
51764;SDS011;37835;53.256;6.456;2023-07-13T10:57:20;1.73;;;0.65;;
51764;SDS011;37835;53.256;6.456;2023-07-13T11:02:28;1.35;;;0.50;;
51764;SDS011;37835;53.256;6.456;2023-07-13T11:04:55;4.10;;;0.85;;
51764;SDS011;37835;53.256;6.456;2023-07-13T11:09:58;1.70;;;0.80;;
51764;SDS011;37835;53.256;6.456;2023-07-13T11:12:48;2.15;;;0.70;;
51764;SDS011;37835;53.256;6.456;2023-07-13T11:15:26;3.03;;;0.82;;
51764;SDS011;37835;53.256;6.456;2023-07-13T11:17:57;2.10;;;1.15;;
51764;SDS011;37835;53.256;6.456;2023-07-13T11:23:15;2.83;;;1.02;;
51764;SDS011;37835;53.256;6.456;2023-07-13T11:25:52;3.38;;;1.10;;
51764;SDS011;37835;53.256;6.456;2023-07-13T11:28:21;3.63;;;0.70;;
51764;SDS011;37835;53.256;6.456;2023-07-13T11:38:43;6.28;;;0.70;;
51764;SDS011;37835;53.256;6.456;2023-07-13T11:41:21;2.90;;;1.00;;
51764;SDS011;37835;53.256;6.456;2023-07-13T11:43:55;2.33;;;0.70;;
51764;SDS011;37835;53.256;6.456;2023-07-13T11:46:32;4.30;;;1.45;;
51764;SDS011;37835;53.256;6.456;2023-07-13T11:48:58;2.83;;;0.70;;
51764;SDS011;37835;53.256;6.456;2023-07-13T11:51:34;3.13;;;0.88;;
51764;SDS011;37835;53.256;6.456;2023-07-13T11:54:03;1.67;;;0.77;;
51764;SDS011;37835;53.256;6.456;2023-07-13T11:56:32;6.75;;;1.00;;
51764;SDS011;37835;53.256;6.456;2023-07-13T11:59:04;1.92;;;0.80;;
51764;SDS011;37835;53.256;6.456;2023-07-13T12:01:42;5.32;;;1.27;;
51764;SDS011;37835;53.256;6.456;2023-07-13T12:04:32;2.83;;;0.80;;
51764;SDS011;37835;53.256;6.456;2023-07-13T12:06:58;4.35;;;1.13;;
51764;SDS011;37835;53.256;6.456;2023-07-13T12:09:32;4.72;;;1.30;;
51764;SDS011;37835;53.256;6.456;2023-07-13T12:12:01;2.72;;;0.77;;
51764;SDS011;37835;53.256;6.456;2023-07-13T12:14:27;2.03;;;0.80;;
51764;SDS011;37835;53.256;6.456;2023-07-13T12:16:53;1.92;;;0.88;;
51764;SDS011;37835;53.256;6.456;2023-07-13T12:19:22;3.55;;;0.98;;
51764;SDS011;37835;53.256;6.456;2023-07-13T12:21:50;4.57;;;0.85;;
51764;SDS011;37835;53.256;6.456;2023-07-13T12:24:18;2.88;;;1.27;;
51764;SDS011;37835;53.256;6.456;2023-07-13T12:26:59;3.92;;;1.00;;
51764;SDS011;37835;53.256;6.456;2023-07-13T12:29:26;5.95;;;1.30;;
51764;SDS011;37835;53.256;6.456;2023-07-13T12:31:52;5.65;;;1.00;;
51764;SDS011;37835;53.256;6.456;2023-07-13T12:34:19;4.88;;;1.00;;
51764;SDS011;37835;53.256;6.456;2023-07-13T12:36:50;2.40;;;0.90;;
51764;SDS011;37835;53.256;6.456;2023-07-13T12:39:21;2.30;;;0.70;;
51764;SDS011;37835;53.256;6.456;2023-07-13T12:41:51;5.60;;;0.80;;
51764;SDS011;37835;53.256;6.456;2023-07-13T12:44:18;3.03;;;0.68;;
51764;SDS011;37835;53.256;6.456;2023-07-13T12:46:58;2.53;;;0.75;;
51764;SDS011;37835;53.256;6.456;2023-07-13T12:49:30;3.47;;;0.93;;
51764;SDS011;37835;53.256;6.456;2023-07-13T12:52:00;2.15;;;0.98;;
51764;SDS011;37835;53.256;6.456;2023-07-13T12:54:28;9.02;;;1.63;;
51764;SDS011;37835;53.256;6.456;2023-07-13T12:56:55;3.83;;;1.38;;
51764;SDS011;37835;53.256;6.456;2023-07-13T12:59:23;6.18;;;1.77;;
51764;SDS011;37835;53.256;6.456;2023-07-13T13:01:53;3.75;;;1.10;;
51764;SDS011;37835;53.256;6.456;2023-07-13T13:04:19;3.10;;;1.10;;
51764;SDS011;37835;53.256;6.456;2023-07-13T13:06:47;4.35;;;1.60;;
51764;SDS011;37835;53.256;6.456;2023-07-13T13:09:15;9.10;;;1.80;;
51764;SDS011;37835;53.256;6.456;2023-07-13T13:11:43;8.80;;;1.90;;
51764;SDS011;37835;53.256;6.456;2023-07-13T13:14:09;4.00;;;1.52;;
51764;SDS011;37835;53.256;6.456;2023-07-13T13:16:46;9.07;;;2.30;;
51764;SDS011;37835;53.256;6.456;2023-07-13T13:19:17;4.35;;;1.25;;
51764;SDS011;37835;53.256;6.456;2023-07-13T13:21:45;3.50;;;1.25;;
51764;SDS011;37835;53.256;6.456;2023-07-13T13:24:15;3.70;;;1.40;;
51764;SDS011;37835;53.256;6.456;2023-07-13T13:26:45;3.80;;;1.50;;
51764;SDS011;37835;53.256;6.456;2023-07-13T13:31:39;9.65;;;2.20;;
51764;SDS011;37835;53.256;6.456;2023-07-13T13:34:07;8.02;;;1.92;;
51764;SDS011;37835;53.256;6.456;2023-07-13T13:36:35;7.63;;;1.70;;
51764;SDS011;37835;53.256;6.456;2023-07-13T13:39:00;7.75;;;1.75;;
51764;SDS011;37835;53.256;6.456;2023-07-13T13:41:27;4.45;;;1.80;;
51764;SDS011;37835;53.256;6.456;2023-07-13T13:43:53;5.82;;;1.67;;
51764;SDS011;37835;53.256;6.456;2023-07-13T13:46:19;7.40;;;2.00;;
51764;SDS011;37835;53.256;6.456;2023-07-13T13:48:50;5.28;;;1.70;;
51764;SDS011;37835;53.256;6.456;2023-07-13T13:51:16;7.47;;;1.75;;
51764;SDS011;37835;53.256;6.456;2023-07-13T13:53:45;13.27;;;2.03;;
51764;SDS011;37835;53.256;6.456;2023-07-13T13:56:12;3.88;;;1.27;;
51764;SDS011;37835;53.256;6.456;2023-07-13T13:58:38;5.28;;;1.35;;
51764;SDS011;37835;53.256;6.456;2023-07-13T14:01:04;8.02;;;1.50;;
51764;SDS011;37835;53.256;6.456;2023-07-13T14:03:37;6.35;;;1.27;;
51764;SDS011;37835;53.256;6.456;2023-07-13T14:06:03;6.82;;;1.83;;
51764;SDS011;37835;53.256;6.456;2023-07-13T14:08:28;5.25;;;1.50;;
51764;SDS011;37835;53.256;6.456;2023-07-13T14:10:55;3.75;;;1.30;;
51764;SDS011;37835;53.256;6.456;2023-07-13T14:13:27;7.40;;;1.25;;
51764;SDS011;37835;53.256;6.456;2023-07-13T14:15:57;4.07;;;1.30;;
51764;SDS011;37835;53.256;6.456;2023-07-13T14:18:24;6.55;;;1.40;;
51764;SDS011;37835;53.256;6.456;2023-07-13T14:20:50;4.22;;;1.10;;
51764;SDS011;37835;53.256;6.456;2023-07-13T14:23:17;4.03;;;1.20;;
51764;SDS011;37835;53.256;6.456;2023-07-13T14:25:43;5.65;;;1.35;;
51764;SDS011;37835;53.256;6.456;2023-07-13T14:28:19;5.63;;;1.20;;
51764;SDS011;37835;53.256;6.456;2023-07-13T14:30:50;5.35;;;1.33;;
51764;SDS011;37835;53.256;6.456;2023-07-13T14:33:17;4.93;;;1.52;;
51764;SDS011;37835;53.256;6.456;2023-07-13T14:35:42;7.57;;;1.20;;
51764;SDS011;37835;53.256;6.456;2023-07-13T14:38:15;5.32;;;1.35;;
51764;SDS011;37835;53.256;6.456;2023-07-13T14:40:43;4.63;;;1.60;;
51764;SDS011;37835;53.256;6.456;2023-07-13T14:43:09;5.63;;;1.48;;
51764;SDS011;37835;53.256;6.456;2023-07-13T14:45:37;6.53;;;1.38;;
51764;SDS011;37835;53.256;6.456;2023-07-13T14:48:30;3.45;;;1.33;;
51764;SDS011;37835;53.256;6.456;2023-07-13T14:50:56;6.60;;;1.48;;
51764;SDS011;37835;53.256;6.456;2023-07-13T14:53:27;7.85;;;1.52;;
51764;SDS011;37835;53.256;6.456;2023-07-13T14:55:53;4.07;;;1.35;;
51764;SDS011;37835;53.256;6.456;2023-07-13T14:58:19;6.43;;;1.58;;
51764;SDS011;37835;53.256;6.456;2023-07-13T15:00:45;8.02;;;1.60;;
51764;SDS011;37835;53.256;6.456;2023-07-13T15:03:21;6.18;;;1.65;;
51764;SDS011;37835;53.256;6.456;2023-07-13T15:05:48;9.40;;;1.60;;
51764;SDS011;37835;53.256;6.456;2023-07-13T15:08:15;3.25;;;1.60;;
51764;SDS011;37835;53.256;6.456;2023-07-13T15:10:41;7.45;;;1.83;;
51764;SDS011;37835;53.256;6.456;2023-07-13T15:13:20;6.72;;;1.73;;
51764;SDS011;37835;53.256;6.456;2023-07-13T15:15:49;8.45;;;2.05;;
51764;SDS011;37835;53.256;6.456;2023-07-13T15:18:18;3.50;;;1.60;;
51764;SDS011;37835;53.256;6.456;2023-07-13T15:20:47;5.35;;;2.08;;
51764;SDS011;37835;53.256;6.456;2023-07-13T15:23:15;4.82;;;1.90;;
51764;SDS011;37835;53.256;6.456;2023-07-13T15:25:42;5.63;;;1.75;;